Time;durP1;ratioP1;P1;durP2;ratioP2;P2;SDS_P1;SDS_P2;PMS_P1;PMS_P2;Temp;Humidity;BMP_temperature;BMP_pressure;BME280_temperature;BME280_humidity;BME280_pressure;Samples;Min_cycle;Max_cycle;Signal;HPM_P1;HPM_P2
2023/09/27 00:00:53;;;;;;;8.75;7.25;;;12.30;99.90;;;;;;6042388;23;20212;-86
2023/09/27 00:03:20;;;;;;;8.07;7.28;;;12.30;99.90;;;;;;6040549;23;20228;-86
2023/09/27 00:05:47;;;;;;;8.30;7.05;;;12.30;99.90;;;;;;6066550;23;20674;-85
2023/09/27 00:08:14;;;;;;;7.88;7.07;;;12.30;99.90;;;;;;6066336;23;20173;-87
2023/09/27 00:10:41;;;;;;;9.85;7.53;;;12.30;99.90;;;;;;6066908;23;20196;-86
2023/09/27 00:13:09;;;;;;;7.95;6.78;;;12.30;99.90;;;;;;6066163;23;20174;-86
2023/09/27 00:15:37;;;;;;;8.18;6.90;;;12.30;99.90;;;;;;6040833;23;20181;-86
2023/09/27 00:18:06;;;;;;;8.02;7.22;;;12.20;99.90;;;;;;6041829;23;20177;-86
2023/09/27 00:20:32;;;;;;;8.48;7.15;;;12.20;99.90;;;;;;6066829;23;20260;-86
2023/09/27 00:23:00;;;;;;;7.93;7.22;;;12.10;99.90;;;;;;6066206;23;20609;-86
2023/09/27 00:25:27;;;;;;;7.35;6.68;;;12.10;99.90;;;;;;6018191;23;20197;-86
2023/09/27 00:27:54;;;;;;;7.43;6.60;;;12.20;99.90;;;;;;6042163;23;20177;-86
2023/09/27 00:30:21;;;;;;;8.43;6.40;;;12.20;99.90;;;;;;6066009;23;20661;-86
2023/09/27 00:32:48;;;;;;;7.20;6.50;;;12.20;99.90;;;;;;6040517;23;20635;-86
2023/09/27 00:35:21;;;;;;;7.85;7.15;;;12.10;99.90;;;;;;6037421;23;21370;-86
2023/09/27 00:37:49;;;;;;;7.43;6.72;;;12.10;99.90;;;;;;6025708;23;20202;-87
2023/09/27 00:40:18;;;;;;;8.63;6.85;;;12.10;99.90;;;;;;6051531;23;20941;-86
2023/09/27 00:42:47;;;;;;;7.95;7.15;;;12.10;99.90;;;;;;6052137;23;20684;-87
2023/09/27 00:45:14;;;;;;;7.95;6.60;;;12.10;99.90;;;;;;6057239;23;20256;-86
2023/09/27 00:47:42;;;;;;;7.00;6.30;;;12.00;99.90;;;;;;6040645;23;20200;-86
2023/09/27 00:50:09;;;;;;;7.63;6.75;;;12.00;99.90;;;;;;6059859;23;20169;-86
2023/09/27 00:52:40;;;;;;;7.35;6.32;;;11.90;99.90;;;;;;6040083;23;20759;-86
2023/09/27 00:55:11;;;;;;;7.60;6.80;;;11.90;99.90;;;;;;6066341;23;20652;-85
2023/09/27 00:57:38;;;;;;;7.53;6.72;;;11.90;99.90;;;;;;6018745;23;20264;-86
2023/09/27 01:00:10;;;;;;;7.00;6.30;;;11.80;99.90;;;;;;6065309;23;20244;-86
2023/09/27 01:02:37;;;;;;;8.10;6.50;;;11.80;99.90;;;;;;6066641;23;20623;-86
2023/09/27 01:05:08;;;;;;;9.10;6.63;;;11.80;99.90;;;;;;6063432;23;20180;-86
2023/09/27 01:07:37;;;;;;;7.80;6.50;;;11.90;99.90;;;;;;6066081;23;20179;-86
2023/09/27 01:10:06;;;;;;;7.10;6.40;;;11.80;99.90;;;;;;6066943;23;20240;-86
2023/09/27 01:12:33;;;;;;;6.45;5.85;;;11.80;99.90;;;;;;6066339;23;20212;-87
2023/09/27 01:15:01;;;;;;;7.95;6.10;;;11.90;99.90;;;;;;6065479;23;20184;-86
2023/09/27 01:17:28;;;;;;;6.65;6.03;;;11.90;99.90;;;;;;6067078;23;20204;-86
2023/09/27 01:19:54;;;;;;;6.10;5.45;;;11.90;99.90;;;;;;6012497;23;20208;-86
2023/09/27 01:22:21;;;;;;;6.90;6.20;;;11.80;99.90;;;;;;6034745;23;20181;-86
2023/09/27 01:24:54;;;;;;;6.20;5.60;;;11.90;99.90;;;;;;6034843;23;20186;-86
2023/09/27 01:27:21;;;;;;;6.70;6.10;;;11.90;99.90;;;;;;6038009;23;20524;-86
2023/09/27 01:29:48;;;;;;;6.43;5.80;;;11.90;99.90;;;;;;6036856;23;20196;-86
2023/09/27 01:32:15;;;;;;;6.47;5.88;;;11.90;99.90;;;;;;6037734;23;20181;-85
2023/09/27 01:34:42;;;;;;;6.05;5.40;;;11.90;99.90;;;;;;6035892;23;20185;-85
2023/09/27 01:37:09;;;;;;;6.05;5.38;;;11.90;99.90;;;;;;6038053;23;20261;-87
2023/09/27 01:39:37;;;;;;;5.78;5.18;;;11.90;99.90;;;;;;6037673;23;20265;-86
2023/09/27 01:42:05;;;;;;;6.00;5.43;;;11.90;99.90;;;;;;6036336;23;20205;-86
2023/09/27 01:44:32;;;;;;;6.35;5.10;;;11.90;99.90;;;;;;6036502;23;20182;-86
2023/09/27 01:46:59;;;;;;;5.88;5.15;;;11.90;99.90;;;;;;6036345;23;20282;-86
2023/09/27 01:49:26;;;;;;;5.88;5.15;;;11.80;99.90;;;;;;6014270;23;20468;-86
2023/09/27 01:51:53;;;;;;;6.30;5.70;;;11.90;99.90;;;;;;6037875;23;20194;-86
2023/09/27 01:54:20;;;;;;;5.82;5.15;;;11.90;99.90;;;;;;6012377;23;20213;-86
2023/09/27 01:56:47;;;;;;;6.47;5.50;;;11.80;99.90;;;;;;6038804;23;20185;-86
2023/09/27 01:59:15;;;;;;;6.45;5.50;;;11.80;99.90;;;;;;6013772;23;20256;-86
2023/09/27 02:01:42;;;;;;;7.15;5.72;;;11.60;99.90;;;;;;6037340;23;20487;-86
2023/09/27 02:04:09;;;;;;;7.05;5.40;;;11.60;99.90;;;;;;6037619;23;20186;-86
2023/09/27 02:06:36;;;;;;;5.68;5.13;;;11.60;99.90;;;;;;6038651;23;20241;-86
2023/09/27 02:09:04;;;;;;;5.20;4.78;;;11.50;99.90;;;;;;6038784;23;20217;-86
2023/09/27 02:11:31;;;;;;;6.05;5.28;;;11.50;99.90;;;;;;6038004;23;20541;-86
2023/09/27 02:13:58;;;;;;;8.25;5.20;;;11.60;99.90;;;;;;6038144;23;20212;-86
2023/09/27 02:16:39;;;;;;;5.60;5.10;;;11.60;99.90;;;;;;6037445;23;20496;-86
2023/09/27 02:19:08;;;;;;;5.93;5.20;;;11.50;99.90;;;;;;6048022;23;20259;-86
2023/09/27 02:21:35;;;;;;;5.93;5.13;;;11.50;99.90;;;;;;6065535;23;20183;-86
2023/09/27 02:24:02;;;;;;;5.47;4.97;;;11.50;99.90;;;;;;6063850;23;20173;-86
2023/09/27 02:26:40;;;;;;;5.60;5.10;;;11.40;99.90;;;;;;6064114;23;20623;-86
2023/09/27 02:29:29;;;;;;;7.03;4.80;;;11.40;99.90;;;;;;6065545;23;20174;-85
2023/09/27 02:35:09;;;;;;;6.50;5.18;;;11.30;99.90;;;;;;6057133;23;20217;-86
2023/09/27 02:37:58;;;;;;;7.95;5.20;;;11.30;99.90;;;;;;6064307;23;20640;-86
2023/09/27 02:40:42;;;;;;;6.50;4.65;;;11.30;99.90;;;;;;6065608;23;20177;-86
2023/09/27 02:45:59;;;;;;;5.20;4.70;;;11.30;99.90;;;;;;6063670;23;20201;-86
2023/09/27 02:48:30;;;;;;;5.30;4.80;;;11.20;99.90;;;;;;6065146;23;20208;-86
2023/09/27 02:51:20;;;;;;;5.32;4.65;;;11.20;99.90;;;;;;6064272;23;20550;-86
2023/09/27 02:53:49;;;;;;;6.65;4.65;;;11.20;99.90;;;;;;6039853;23;20181;-86
2023/09/27 02:56:17;;;;;;;5.20;4.70;;;11.20;99.90;;;;;;6057514;23;20178;-86
2023/09/27 02:58:45;;;;;;;6.28;4.95;;;11.20;99.90;;;;;;6061912;23;20616;-86
2023/09/27 03:01:12;;;;;;;7.07;4.20;;;11.20;99.90;;;;;;6041964;23;20181;-86
2023/09/27 03:03:41;;;;;;;4.78;4.28;;;11.10;99.90;;;;;;6041912;23;20377;-86
2023/09/27 03:06:14;;;;;;;5.93;4.70;;;11.20;99.90;;;;;;6041758;23;20704;-87
2023/09/27 03:09:01;;;;;;;5.32;4.30;;;11.10;99.90;;;;;;6041104;23;20173;-86
2023/09/27 03:11:28;;;;;;;6.00;4.88;;;11.10;99.90;;;;;;6065836;23;20187;-86
2023/09/27 03:13:57;;;;;;;4.57;4.18;;;11.10;99.90;;;;;;6040946;23;20216;-86
2023/09/27 03:16:25;;;;;;;6.10;4.55;;;11.10;99.90;;;;;;6065907;23;20174;-85
2023/09/27 03:21:37;;;;;;;5.43;4.22;;;11.10;99.90;;;;;;6037617;23;20182;-86
2023/09/27 03:24:09;;;;;;;4.45;4.05;;;11.10;99.90;;;;;;6037530;23;20176;-87
2023/09/27 03:26:36;;;;;;;4.63;4.22;;;11.10;99.90;;;;;;6037229;23;20205;-86
2023/09/27 03:29:04;;;;;;;4.85;4.38;;;11.10;99.90;;;;;;6037418;23;20186;-86
2023/09/27 03:31:31;;;;;;;4.53;4.03;;;11.00;99.90;;;;;;6037859;23;20178;-86
2023/09/27 03:34:00;;;;;;;5.72;4.65;;;11.00;99.90;;;;;;6038151;23;20182;-87
2023/09/27 03:36:27;;;;;;;4.32;3.92;;;11.00;99.90;;;;;;6036494;23;20506;-85
2023/09/27 03:38:54;;;;;;;4.97;4.00;;;11.00;99.90;;;;;;6036766;23;20205;-86
2023/09/27 03:41:21;;;;;;;6.68;4.30;;;11.00;99.90;;;;;;6037254;23;20174;-86
2023/09/27 03:43:50;;;;;;;4.55;4.10;;;11.00;99.90;;;;;;6035594;23;20184;-86
2023/09/27 03:46:17;;;;;;;4.47;4.07;;;10.90;99.90;;;;;;6038171;23;20649;-86
2023/09/27 03:48:44;;;;;;;4.60;4.20;;;10.90;99.90;;;;;;6036608;23;20185;-86
2023/09/27 03:51:16;;;;;;;5.15;4.60;;;10.90;99.90;;;;;;6037422;23;20280;-86
2023/09/27 03:54:03;;;;;;;5.32;4.35;;;11.00;99.90;;;;;;6036637;23;20185;-87
2023/09/27 03:56:30;;;;;;;5.22;4.00;;;11.00;99.90;;;;;;6037336;23;20188;-86
2023/09/27 03:58:58;;;;;;;4.68;4.25;;;11.00;99.90;;;;;;6038310;23;20599;-85
2023/09/27 04:01:25;;;;;;;4.57;4.18;;;10.90;99.90;;;;;;6037200;23;20226;-86
2023/09/27 04:03:53;;;;;;;4.47;4.07;;;10.90;99.90;;;;;;6037134;23;20185;-86
2023/09/27 04:06:22;;;;;;;4.60;4.20;;;10.90;99.90;;;;;;6036796;23;20264;-86
2023/09/27 04:08:49;;;;;;;5.28;4.30;;;11.00;99.90;;;;;;6036572;23;20180;-86
2023/09/27 04:11:16;;;;;;;5.43;4.20;;;11.00;99.90;;;;;;6037501;23;20174;-86
2023/09/27 04:13:45;;;;;;;5.50;4.90;;;11.00;99.90;;;;;;6035557;23;20174;-86
2023/09/27 04:16:12;;;;;;;4.25;3.85;;;11.00;99.90;;;;;;6037016;23;20178;-85
2023/09/27 04:18:39;;;;;;;5.47;4.22;;;11.00;99.90;;;;;;6041439;23;20189;-85
2023/09/27 04:21:07;;;;;;;5.97;4.20;;;11.10;99.90;;;;;;6064417;23;20162;-85
2023/09/27 04:23:36;;;;;;;5.28;4.78;;;11.10;99.90;;;;;;6065361;23;20174;-86
2023/09/27 04:26:05;;;;;;;5.88;4.45;;;11.10;99.90;;;;;;6066099;23;20205;-86
2023/09/27 04:28:31;;;;;;;5.80;4.53;;;11.10;99.90;;;;;;6065978;23;20179;-89
2023/09/27 04:30:58;;;;;;;4.78;4.38;;;11.00;99.90;;;;;;6065910;23;20177;-88
2023/09/27 04:33:25;;;;;;;4.43;3.97;;;10.90;99.90;;;;;;6065474;23;20173;-85
2023/09/27 04:35:52;;;;;;;4.68;4.20;;;10.90;99.90;;;;;;6016601;23;20191;-86
2023/09/27 04:38:19;;;;;;;4.10;3.80;;;10.90;99.90;;;;;;6065278;23;20176;-86
2023/09/27 04:40:47;;;;;;;4.97;4.13;;;10.90;99.90;;;;;;6040622;23;20173;-86
2023/09/27 04:43:14;;;;;;;4.40;4.00;;;11.00;99.90;;;;;;6040708;23;20475;-86
2023/09/27 04:45:41;;;;;;;5.63;4.20;;;11.10;99.90;;;;;;6039713;23;20181;-85
2023/09/27 04:48:08;;;;;;;4.78;4.28;;;11.10;99.90;;;;;;6065634;23;20228;-86
2023/09/27 04:50:35;;;;;;;5.10;4.18;;;11.00;99.90;;;;;;6066244;23;20193;-86
2023/09/27 04:53:02;;;;;;;5.97;4.40;;;11.00;99.90;;;;;;6064901;23;20686;-88
2023/09/27 04:55:29;;;;;;;5.50;4.00;;;11.00;99.90;;;;;;6065449;23;20169;-85
2023/09/27 04:57:57;;;;;;;5.65;3.92;;;11.10;99.90;;;;;;6041164;23;20248;-87
2023/09/27 05:00:24;;;;;;;4.13;3.72;;;11.10;99.90;;;;;;6061722;23;20203;-86
2023/09/27 05:02:52;;;;;;;4.78;4.10;;;11.00;99.90;;;;;;6040058;23;20259;-87
2023/09/27 05:05:19;;;;;;;5.20;4.20;;;10.90;99.90;;;;;;6040618;23;20181;-89
2023/09/27 05:07:53;;;;;;;5.90;4.30;;;10.90;99.90;;;;;;6039862;23;20213;-88
2023/09/27 05:10:43;;;;;;;4.85;4.20;;;10.80;99.90;;;;;;6052667;23;20185;-87
2023/09/27 05:13:12;;;;;;;5.80;4.80;;;10.70;99.90;;;;;;6065309;23;20571;-88
2023/09/27 05:15:54;;;;;;;5.38;3.75;;;10.70;99.90;;;;;;6066391;23;20172;-88
2023/09/27 05:18:22;;;;;;;5.47;4.40;;;10.60;99.90;;;;;;6040870;23;20237;-92
2023/09/27 05:20:49;;;;;;;6.20;3.80;;;10.60;99.90;;;;;;6065100;23;20181;-87
2023/09/27 05:23:16;;;;;;;4.40;4.00;;;10.60;99.90;;;;;;6017781;23;20687;-87
2023/09/27 05:25:43;;;;;;;7.07;4.35;;;10.60;99.90;;;;;;6068134;23;20268;-86
2023/09/27 05:28:12;;;;;;;4.95;4.28;;;10.70;99.90;;;;;;6067741;23;20201;-87
2023/09/27 05:30:39;;;;;;;4.43;3.97;;;10.70;99.90;;;;;;6068055;23;20184;-87
2023/09/27 05:33:06;;;;;;;5.20;4.60;;;10.60;99.90;;;;;;6041969;23;20508;-90
2023/09/27 05:35:33;;;;;;;4.35;3.95;;;10.60;99.90;;;;;;6041469;23;20829;-89
2023/09/27 05:38:00;;;;;;;7.38;4.57;;;10.60;99.90;;;;;;6066988;23;20260;-89
2023/09/27 05:40:27;;;;;;;5.57;4.75;;;10.60;99.90;;;;;;6066954;23;20204;-87
2023/09/27 05:42:54;;;;;;;6.50;4.15;;;10.60;99.90;;;;;;6041935;23;20269;-87
2023/09/27 05:45:22;;;;;;;8.52;4.40;;;10.60;99.90;;;;;;6066846;23;20173;-86
2023/09/27 05:47:49;;;;;;;7.55;4.53;;;10.70;99.90;;;;;;6066399;23;20197;-86
2023/09/27 05:50:16;;;;;;;5.22;4.50;;;10.70;99.90;;;;;;6065966;23;20264;-87
2023/09/27 05:52:46;;;;;;;6.88;4.93;;;10.70;99.90;;;;;;6014611;23;20236;-85
2023/09/27 05:55:13;;;;;;;4.68;4.07;;;10.70;99.90;;;;;;6066793;23;20173;-86
2023/09/27 05:57:40;;;;;;;5.53;4.15;;;10.80;99.90;;;;;;6068132;23;20173;-87
2023/09/27 06:00:15;;;;;;;8.70;4.50;;;10.80;99.90;;;;;;6041690;23;20185;-86
2023/09/27 06:02:43;;;;;;;4.90;4.40;;;10.90;99.90;;;;;;6066321;23;20177;-85
2023/09/27 06:05:11;;;;;;;4.55;4.15;;;10.90;99.90;;;;;;6039179;23;20233;-86
2023/09/27 06:07:38;;;;;;;5.65;4.60;;;11.10;99.90;;;;;;6036896;23;20301;-87
2023/09/27 06:10:06;;;;;;;5.30;3.95;;;11.10;99.90;;;;;;6066252;23;20259;-87
2023/09/27 06:12:33;;;;;;;5.28;3.90;;;11.20;99.90;;;;;;6066495;23;20173;-87
2023/09/27 06:15:00;;;;;;;7.95;3.95;;;11.30;99.90;;;;;;6066121;23;20188;-85
2023/09/27 06:17:28;;;;;;;4.13;3.72;;;11.30;99.90;;;;;;6040753;23;20174;-86
2023/09/27 06:20:11;;;;;;;5.72;3.90;;;11.40;99.90;;;;;;6036256;23;20201;-85
2023/09/27 06:22:38;;;;;;;4.05;3.65;;;11.50;99.90;;;;;;6036702;23;20190;-86
2023/09/27 06:25:06;;;;;;;7.50;3.88;;;11.50;99.90;;;;;;6037515;23;20174;-86
2023/09/27 06:27:34;;;;;;;4.35;3.35;;;11.60;99.90;;;;;;6036859;23;20198;-86
2023/09/27 06:30:03;;;;;;;4.40;3.63;;;11.70;99.90;;;;;;6036932;23;20574;-86
2023/09/27 06:32:30;;;;;;;4.50;4.10;;;11.80;99.90;;;;;;6036451;23;20174;-85
2023/09/27 06:34:59;;;;;;;5.28;3.42;;;11.90;99.90;;;;;;6036527;23;20219;-86
2023/09/27 06:37:26;;;;;;;7.82;3.65;;;12.00;99.90;;;;;;6036383;23;20201;-86
2023/09/27 06:39:53;;;;;;;4.18;3.65;;;12.10;99.90;;;;;;6037401;23;20676;-86
2023/09/27 06:42:21;;;;;;;6.38;3.88;;;12.20;99.90;;;;;;6039727;23;20180;-86
2023/09/27 06:44:49;;;;;;;3.95;3.40;;;12.20;99.90;;;;;;6038577;23;20239;-86
2023/09/27 06:47:16;;;;;;;3.60;3.30;;;12.30;99.90;;;;;;6037132;23;20273;-86
2023/09/27 06:49:43;;;;;;;4.13;3.50;;;12.40;99.90;;;;;;6012562;23;20208;-88
2023/09/27 06:52:12;;;;;;;6.13;3.80;;;12.50;99.90;;;;;;6037569;23;20194;-88
2023/09/27 06:54:39;;;;;;;4.53;3.40;;;12.50;99.90;;;;;;6036046;23;20233;-91
2023/09/27 06:57:06;;;;;;;4.65;3.47;;;12.60;99.90;;;;;;6036621;23;20501;-87
2023/09/27 06:59:33;;;;;;;4.00;3.60;;;12.70;99.90;;;;;;6034487;23;20181;-87
2023/09/27 07:02:00;;;;;;;7.18;3.42;;;12.80;99.90;;;;;;6036450;23;20174;-87
2023/09/27 07:04:27;;;;;;;4.22;3.53;;;12.90;99.90;;;;;;6035794;23;20178;-87
2023/09/27 07:06:54;;;;;;;4.53;3.50;;;12.90;99.90;;;;;;6037316;23;20174;-87
2023/09/27 07:09:22;;;;;;;4.40;3.83;;;13.00;99.90;;;;;;6036183;23;20182;-86
2023/09/27 07:11:49;;;;;;;6.22;3.42;;;13.20;99.90;;;;;;6035690;23;20221;-86
2023/09/27 07:14:19;;;;;;;3.97;3.58;;;13.30;99.90;;;;;;6036611;23;20174;-87
2023/09/27 07:16:46;;;;;;;3.92;3.42;;;13.30;99.90;;;;;;6035837;23;20204;-87
2023/09/27 07:19:13;;;;;;;4.78;3.70;;;13.50;99.90;;;;;;6042065;23;20185;-86
2023/09/27 07:21:40;;;;;;;4.22;3.30;;;13.50;99.90;;;;;;6041974;23;20200;-88
2023/09/27 07:24:09;;;;;;;4.15;3.75;;;13.70;99.90;;;;;;6017139;23;20178;-86
2023/09/27 07:26:39;;;;;;;5.68;4.00;;;13.80;99.90;;;;;;6066052;23;20183;-85
2023/09/27 07:29:06;;;;;;;5.53;3.80;;;13.90;99.90;;;;;;6041165;23;20276;-86
2023/09/27 07:31:35;;;;;;;6.20;4.40;;;14.00;99.90;;;;;;6041049;23;20181;-88
2023/09/27 07:34:02;;;;;;;4.93;3.88;;;14.10;99.90;;;;;;6066732;23;20173;-88
2023/09/27 07:36:29;;;;;;;4.65;3.70;;;14.30;99.90;;;;;;6067121;23;20268;-86
2023/09/27 07:38:57;;;;;;;5.32;4.05;;;14.40;99.90;;;;;;6041553;23;20170;-87
2023/09/27 07:41:25;;;;;;;4.00;3.65;;;14.50;99.90;;;;;;6067451;23;20181;-87
2023/09/27 07:43:54;;;;;;;4.47;3.70;;;14.60;99.90;;;;;;6040917;23;20181;-87
2023/09/27 07:46:21;;;;;;;3.80;3.38;;;14.70;99.90;;;;;;6065703;23;20639;-87
2023/09/27 07:48:48;;;;;;;9.10;4.43;;;14.90;99.90;;;;;;6065487;23;20207;-87
2023/09/27 07:51:18;;;;;;;8.75;4.68;;;15.00;99.90;;;;;;6064859;23;20219;-87
2023/09/27 07:53:45;;;;;;;6.45;5.00;;;15.20;99.90;;;;;;6065629;23;20820;-87
2023/09/27 07:56:19;;;;;;;5.40;4.85;;;15.30;99.90;;;;;;6066074;23;20236;-86
2023/09/27 07:58:47;;;;;;;8.35;5.63;;;15.40;99.90;;;;;;6066394;23;20232;-87
2023/09/27 08:01:20;;;;;;;5.18;4.68;;;15.60;99.90;;;;;;6066270;23;20202;-86
2023/09/27 08:03:48;;;;;;;10.85;5.53;;;15.60;99.90;;;;;;6066132;23;20162;-86
2023/09/27 08:06:16;;;;;;;5.90;5.15;;;15.70;99.90;;;;;;6039757;23;20221;-87
2023/09/27 08:08:43;;;;;;;6.45;5.85;;;15.80;99.90;;;;;;6039861;23;20193;-87
2023/09/27 08:11:11;;;;;;;7.25;5.68;;;15.80;99.90;;;;;;6066610;23;20174;-86
2023/09/27 08:13:38;;;;;;;10.52;7.50;;;15.90;99.90;;;;;;6041540;23;20507;-86
2023/09/27 08:16:07;;;;;;;7.22;6.47;;;16.00;99.90;;;;;;6065929;23;20177;-87
2023/09/27 08:18:37;;;;;;;7.25;5.35;;;16.10;99.90;;;;;;6040737;23;20256;-88
2023/09/27 08:21:04;;;;;;;8.98;6.57;;;16.20;99.90;;;;;;6066670;23;20181;-89
2023/09/27 08:23:31;;;;;;;8.25;7.45;;;16.40;99.90;;;;;;6040615;23;20248;-87
2023/09/27 08:25:58;;;;;;;7.65;6.57;;;16.50;99.90;;;;;;6066360;23;20184;-87
2023/09/27 08:28:25;;;;;;;7.05;5.90;;;16.60;99.90;;;;;;6040340;23;20197;-88
2023/09/27 08:30:52;;;;;;;8.57;6.07;;;16.70;99.90;;;;;;6041355;23;20186;-88
2023/09/27 08:33:19;;;;;;;9.75;6.00;;;16.80;99.90;;;;;;6066117;23;20191;-87
2023/09/27 08:35:51;;;;;;;8.68;6.35;;;16.90;99.90;;;;;;6066030;23;20178;-87
2023/09/27 08:38:18;;;;;;;9.18;5.90;;;17.00;99.90;;;;;;6066218;23;20176;-88
2023/09/27 08:40:45;;;;;;;6.45;5.72;;;17.10;99.90;;;;;;6040345;23;20179;-87
2023/09/27 08:43:15;;;;;;;12.85;6.53;;;17.20;99.50;;;;;;6017539;23;20497;-87
2023/09/27 08:45:44;;;;;;;6.68;6.00;;;17.30;99.10;;;;;;6065586;23;20188;-87
2023/09/27 08:48:13;;;;;;;6.82;5.47;;;17.50;98.70;;;;;;6066566;23;20197;-87
2023/09/27 08:50:40;;;;;;;11.82;6.18;;;17.60;98.70;;;;;;6040381;23;20661;-87
2023/09/27 08:53:10;;;;;;;6.90;6.20;;;17.80;97.80;;;;;;6041284;23;20194;-87
2023/09/27 08:55:38;;;;;;;8.25;6.70;;;18.00;98.10;;;;;;6065203;23;20185;-87
2023/09/27 08:58:09;;;;;;;8.43;6.85;;;18.30;97.70;;;;;;6068896;23;20176;-87
2023/09/27 09:00:38;;;;;;;9.57;5.93;;;18.50;96.40;;;;;;6044684;23;20185;-86
2023/09/27 09:03:07;;;;;;;8.32;6.95;;;18.70;96.40;;;;;;6045038;23;20166;-86
2023/09/27 09:05:35;;;;;;;13.68;9.45;;;19.00;95.30;;;;;;6068073;23;20204;-86
2023/09/27 09:08:04;;;;;;;11.63;8.50;;;19.90;92.60;;;;;;6019182;23;20220;-86
2023/09/27 09:10:33;;;;;;;9.57;7.00;;;20.90;90.90;;;;;;6068765;23;20259;-87
2023/09/27 09:13:01;;;;;;;11.68;5.80;;;21.40;88.20;;;;;;6067877;23;20492;-87
2023/09/27 09:15:29;;;;;;;9.32;6.78;;;21.80;83.20;;;;;;6069517;23;20292;-83
2023/09/27 09:17:59;;;;;;;10.80;7.45;;;22.70;71.60;;;;;;6069869;23;20169;-82
2023/09/27 09:20:32;;;;;;;12.85;7.47;;;23.20;50.30;;;;;;6069345;23;20184;-86
2023/09/27 09:23:03;;;;;;;14.48;7.30;;;23.60;47.90;;;;;;6069310;23;20240;-86
2023/09/27 09:25:38;;;;;;;18.88;8.75;;;23.60;46.60;;;;;;6069310;23;20243;-90
2023/09/27 09:28:07;;;;;;;10.32;6.55;;;23.80;41.70;;;;;;6067987;23;20200;-90
2023/09/27 09:30:36;;;;;;;8.52;7.45;;;23.70;42.80;;;;;;6069601;23;20173;-89
2023/09/27 09:33:04;;;;;;;11.60;8.27;;;24.20;37.00;;;;;;6044313;23;20177;-88
2023/09/27 09:35:32;;;;;;;6.45;5.70;;;25.10;31.90;;;;;;5995972;23;20679;-87
2023/09/27 09:37:59;;;;;;;8.20;6.20;;;26.00;30.20;;;;;;6067073;23;20177;-89
2023/09/27 09:43:10;;;;;;;9.05;7.72;;;26.80;22.60;;;;;;6060472;23;20173;-90
2023/09/27 09:45:44;;;;;;;8.55;7.68;;;28.30;19.40;;;;;;6068374;23;20185;-89
2023/09/27 09:48:12;;;;;;;6.72;6.05;;;27.70;19.20;;;;;;6043085;23;20203;-89
2023/09/27 09:50:40;;;;;;;9.93;8.02;;;27.60;20.90;;;;;;6069352;23;20527;-89
2023/09/27 09:53:09;;;;;;;12.95;8.50;;;27.90;18.30;;;;;;6067798;23;20280;-90
2023/09/27 09:55:36;;;;;;;9.20;7.72;;;28.60;17.10;;;;;;6067644;23;20243;-89
2023/09/27 09:58:12;;;;;;;9.95;9.00;;;28.80;16.10;;;;;;6067624;23;20185;-89
2023/09/27 10:00:49;;;;;;;10.05;8.27;;;28.60;16.00;;;;;;6066841;23;20165;-89
2023/09/27 10:03:22;;;;;;;8.38;7.57;;;28.20;17.90;;;;;;6066139;23;20169;-89
2023/09/27 10:05:51;;;;;;;9.00;7.72;;;28.20;17.40;;;;;;6042919;23;20644;-89
2023/09/27 10:08:19;;;;;;;9.13;8.20;;;27.50;20.40;;;;;;6066490;23;20197;-88
2023/09/27 10:10:47;;;;;;;7.03;6.15;;;26.80;22.90;;;;;;6067290;23;20180;-89
2023/09/27 10:13:18;;;;;;;8.82;6.28;;;27.00;22.10;;;;;;6066441;23;20175;-89
2023/09/27 10:15:49;;;;;;;8.65;6.75;;;27.40;19.70;;;;;;6067631;23;20177;-89
2023/09/27 10:18:33;;;;;;;12.90;8.07;;;26.90;22.90;;;;;;6067828;23;20169;-89
2023/09/27 10:21:08;;;;;;;8.02;6.55;;;27.70;19.90;;;;;;6063358;23;20181;-89
2023/09/27 10:23:36;;;;;;;7.50;5.95;;;27.80;18.20;;;;;;6065198;23;20661;-90
2023/09/27 10:26:31;;;;;;;11.00;9.00;;;27.60;18.40;;;;;;6060413;23;20510;-89
2023/09/27 10:29:18;;;;;;;11.82;10.38;;;26.80;21.50;;;;;;6066742;23;20193;-87
2023/09/27 10:32:20;;;;;;;11.63;8.50;;;26.00;25.10;;;;;;6067546;23;20200;-85
2023/09/27 10:34:49;;;;;;;12.60;8.70;;;25.70;26.00;;;;;;6061286;23;20180;-85
2023/09/27 10:37:17;;;;;;;8.15;6.90;;;25.80;25.10;;;;;;6066942;23;20499;-85
2023/09/27 10:40:17;;;;;;;8.60;6.80;;;26.90;19.90;;;;;;6067039;23;20191;-85
2023/09/27 10:42:44;;;;;;;8.70;7.90;;;26.80;21.20;;;;;;6065101;23;20963;-86
2023/09/27 10:45:13;;;;;;;10.38;9.23;;;26.20;24.00;;;;;;6064499;23;20187;-86
2023/09/27 10:47:40;;;;;;;11.82;8.52;;;25.70;24.80;;;;;;6063512;23;20173;-84
2023/09/27 10:50:10;;;;;;;8.50;7.68;;;25.90;23.60;;;;;;6066092;23;20204;-87
2023/09/27 10:52:39;;;;;;;12.48;9.20;;;25.50;28.30;;;;;;6039562;23;20621;-88
2023/09/27 10:55:10;;;;;;;8.40;7.40;;;25.20;29.10;;;;;;6065012;23;20181;-90
2023/09/27 10:57:39;;;;;;;10.35;8.02;;;24.70;32.50;;;;;;6064987;23;20177;-88
2023/09/27 11:00:10;;;;;;;11.20;7.25;;;24.50;29.50;;;;;;6036762;23;20504;-86
2023/09/27 11:02:37;;;;;;;6.35;5.75;;;24.80;27.50;;;;;;6065412;23;20212;-87
2023/09/27 11:05:05;;;;;;;8.90;7.80;;;24.60;29.50;;;;;;6039210;23;20232;-86
2023/09/27 11:07:47;;;;;;;8.95;7.65;;;24.60;30.90;;;;;;6063302;23;20183;-86
2023/09/27 11:10:31;;;;;;;10.32;7.70;;;24.60;27.70;;;;;;6062292;23;20535;-87
2023/09/27 11:13:11;;;;;;;11.02;8.45;;;24.40;30.20;;;;;;6037895;23;20184;-86
2023/09/27 11:15:38;;;;;;;9.43;7.30;;;24.10;34.50;;;;;;6063123;23;20204;-88
2023/09/27 11:18:07;;;;;;;7.57;6.88;;;23.70;36.50;;;;;;6063126;23;20176;-89
2023/09/27 11:20:34;;;;;;;9.98;7.45;;;23.70;35.10;;;;;;6061166;23;20188;-88
2023/09/27 11:23:02;;;;;;;8.48;7.55;;;23.80;35.30;;;;;;6016295;23;20205;-89
2023/09/27 11:25:32;;;;;;;10.23;7.40;;;23.90;33.00;;;;;;6039687;23;20177;-88
2023/09/27 11:28:00;;;;;;;9.48;7.47;;;23.80;35.20;;;;;;6065231;23;20181;-90
2023/09/27 11:30:30;;;;;;;7.90;6.40;;;23.70;30.50;;;;;;6064016;23;20185;-89
2023/09/27 11:32:57;;;;;;;7.80;7.00;;;23.40;36.40;;;;;;6065549;23;20189;-90
2023/09/27 11:35:25;;;;;;;8.20;5.55;;;23.30;38.10;;;;;;6064892;23;20183;-90
2023/09/27 11:38:11;;;;;;;7.32;6.05;;;23.40;38.00;;;;;;6039877;23;20233;-90
2023/09/27 11:40:53;;;;;;;6.43;5.82;;;23.40;35.00;;;;;;6064514;23;20179;-90
2023/09/27 11:43:20;;;;;;;8.90;6.78;;;23.40;37.10;;;;;;6016229;23;20186;-90
2023/09/27 11:45:48;;;;;;;7.22;5.90;;;23.30;37.10;;;;;;6064671;23;20188;-91
2023/09/27 11:48:16;;;;;;;6.50;5.60;;;23.30;38.50;;;;;;6041283;23;20174;-90
2023/09/27 11:50:43;;;;;;;6.70;5.68;;;23.30;38.40;;;;;;6040084;23;20206;-90
2023/09/27 11:53:19;;;;;;;5.40;4.82;;;23.30;39.60;;;;;;6064800;23;20260;-90
2023/09/27 11:55:46;;;;;;;7.43;5.53;;;23.30;38.30;;;;;;6064833;23;20664;-87
2023/09/27 11:58:13;;;;;;;8.10;6.00;;;23.30;37.20;;;;;;6063790;23;20560;-88
2023/09/27 12:00:40;;;;;;;7.00;5.20;;;23.30;40.70;;;;;;6064526;23;20183;-88
2023/09/27 12:03:06;;;;;;;6.65;5.53;;;23.20;42.30;;;;;;6064961;23;20507;-88
2023/09/27 12:05:36;;;;;;;9.13;4.43;;;23.20;43.60;;;;;;6063904;23;20177;-88
2023/09/27 12:08:04;;;;;;;4.68;4.28;;;23.20;45.10;;;;;;6065000;23;20185;-88
2023/09/27 12:10:32;;;;;;;6.25;4.68;;;23.20;44.70;;;;;;6038774;23;20205;-88
2023/09/27 12:15:59;;;;;;;5.55;4.78;;;23.40;42.30;;;;;;6016560;23;20188;-88
2023/09/27 12:18:27;;;;;;;5.72;5.22;;;23.40;43.70;;;;;;6032903;23;20185;-90
2023/09/27 12:20:53;;;;;;;4.47;4.03;;;23.50;43.40;;;;;;6065948;23;20187;-90
2023/09/27 12:23:20;;;;;;;4.55;4.15;;;23.50;43.30;;;;;;6064435;23;20177;-91
2023/09/27 12:28:38;;;;;;;7.65;5.38;;;23.50;46.00;;;;;;6063236;23;20196;-89
2023/09/27 12:31:11;;;;;;;5.53;4.68;;;23.30;44.10;;;;;;6064497;23;20205;-90
2023/09/27 12:33:37;;;;;;;7.68;5.20;;;23.30;45.70;;;;;;6065128;23;20174;-89
2023/09/27 12:36:16;;;;;;;4.18;3.88;;;23.30;44.80;;;;;;6064603;23;20228;-91
2023/09/27 12:38:43;;;;;;;5.50;5.00;;;23.30;44.40;;;;;;6038674;23;20232;-91
2023/09/27 12:41:12;;;;;;;5.85;4.45;;;23.40;40.00;;;;;;6056424;23;20177;-91
2023/09/27 12:43:40;;;;;;;5.68;4.35;;;23.30;41.10;;;;;;6037207;23;20256;-87
2023/09/27 12:46:09;;;;;;;5.43;4.07;;;23.30;39.00;;;;;;6064679;23;20181;-86
2023/09/27 12:48:36;;;;;;;5.70;3.95;;;23.50;37.80;;;;;;6064103;23;20185;-87
2023/09/27 12:51:07;;;;;;;4.00;3.60;;;23.30;34.90;;;;;;6064300;23;20197;-87
2023/09/27 12:53:34;;;;;;;4.00;3.70;;;23.40;34.90;;;;;;6063107;23;20161;-89
2023/09/27 12:56:01;;;;;;;5.65;3.58;;;23.30;34.90;;;;;;6039115;23;20180;-86
2023/09/27 12:58:30;;;;;;;4.70;3.38;;;23.40;34.90;;;;;;6063357;23;20624;-88
2023/09/27 13:00:56;;;;;;;3.17;2.90;;;23.40;32.30;;;;;;6064911;23;20173;-86
2023/09/27 13:03:23;;;;;;;3.47;3.17;;;23.30;34.30;;;;;;6061770;23;20173;-85
2023/09/27 13:05:50;;;;;;;3.00;2.80;;;23.30;34.90;;;;;;6063351;23;20511;-87
2023/09/27 13:08:18;;;;;;;3.75;3.20;;;23.20;34.80;;;;;;6063209;23;20184;-88
2023/09/27 13:10:45;;;;;;;5.75;2.95;;;23.20;32.40;;;;;;6062020;23;20219;-87
2023/09/27 13:13:12;;;;;;;3.38;3.08;;;23.20;30.00;;;;;;6035640;23;20667;-86